Time;durP1;ratioP1;P1;durP2;ratioP2;P2;SDS_P1;SDS_P2;PMS_P1;PMS_P2;Temp;Humidity;BMP_temperature;BMP_pressure;BME280_temperature;BME280_humidity;BME280_pressure;Samples;Min_cycle;Max_cycle;Signal;HPM_P1;HPM_P2
2021/08/28 00:00:09;;;;;;;7.73;3.50;;;14.00;99.90;;;14.79;100.00;98233.94;5049986;28;20864;-78
2021/08/28 00:02:38;;;;;;;16.93;4.67;;;13.90;99.90;;;14.80;100.00;98244.28;5048860;28;20852;-78
2021/08/28 00:05:08;;;;;;;5.10;3.23;;;14.00;99.90;;;14.81;100.00;98234.56;5051396;28;20525;-78
2021/08/28 00:07:36;;;;;;;7.10;3.90;;;13.90;99.90;;;14.77;100.00;98239.44;5045102;28;20538;-78
2021/08/28 00:10:08;;;;;;;13.50;3.33;;;13.80;99.90;;;14.74;100.00;98236.41;5043961;28;20505;-78
2021/08/28 00:12:37;;;;;;;5.87;3.40;;;13.80;99.90;;;14.73;100.00;98234.78;5044270;28;20519;-78
2021/08/28 00:15:10;;;;;;;5.67;3.60;;;13.70;99.90;;;14.72;100.00;98239.25;5046390;28;20462;-78
2021/08/28 00:17:39;;;;;;;5.20;3.30;;;13.80;99.90;;;14.69;100.00;98242.28;5050771;28;20485;-78
2021/08/28 00:20:12;;;;;;;8.57;3.80;;;13.80;99.90;;;14.65;100.00;98243.72;5052736;28;20524;-78
2021/08/28 00:22:40;;;;;;;5.93;3.23;;;13.80;99.90;;;14.61;100.00;98238.06;5056102;28;20526;-78
2021/08/28 00:25:12;;;;;;;6.07;3.00;;;13.90;99.90;;;14.59;100.00;98240.09;5050251;28;20511;-78
2021/08/28 00:27:41;;;;;;;5.57;3.57;;;13.80;99.90;;;14.58;100.00;98238.47;5053815;28;20510;-78
2021/08/28 00:30:11;;;;;;;8.43;3.60;;;13.80;99.90;;;14.59;100.00;98234.03;5049119;28;20918;-78
2021/08/28 00:32:40;;;;;;;9.17;3.60;;;13.80;99.90;;;14.60;100.00;98231.19;5046818;28;20957;-78
2021/08/28 00:35:10;;;;;;;7.43;4.37;;;13.70;99.90;;;14.61;100.00;98224.13;5051807;28;20507;-78
2021/08/28 00:37:39;;;;;;;4.60;3.50;;;13.60;99.90;;;14.60;100.00;98239.09;5048761;28;20462;-78
2021/08/28 00:40:10;;;;;;;8.80;3.93;;;13.60;99.90;;;14.60;100.00;98236.47;5057896;28;20499;-78
2021/08/28 00:42:51;;;;;;;6.30;3.73;;;13.70;99.90;;;14.59;100.00;98237.47;5049827;28;20526;-78
2021/08/28 00:45:21;;;;;;;5.77;3.60;;;13.70;99.90;;;14.59;100.00;98240.09;5049373;28;20519;-78
2021/08/28 00:47:56;;;;;;;5.60;4.13;;;13.60;99.90;;;14.58;100.00;98227.94;5054962;28;20515;-78
2021/08/28 00:50:26;;;;;;;6.00;4.10;;;13.60;99.90;;;14.54;100.00;98226.75;5047294;28;20457;-78
2021/08/28 00:52:56;;;;;;;10.23;3.80;;;13.60;99.90;;;14.52;100.00;98231.41;5055435;28;20473;-78
2021/08/28 00:55:27;;;;;;;8.90;4.30;;;13.70;99.90;;;14.51;100.00;98232.44;5055524;28;20473;-78
2021/08/28 00:57:57;;;;;;;5.10;3.60;;;13.60;99.90;;;14.50;100.00;98232.66;5051803;28;20593;-78
2021/08/28 01:00:27;;;;;;;5.10;3.43;;;13.60;99.90;;;14.46;100.00;98240.16;5053328;28;20461;-77
2021/08/28 01:02:58;;;;;;;5.17;3.77;;;13.50;99.90;;;14.43;100.00;98239.75;5053417;28;21316;-78
2021/08/28 01:05:34;;;;;;;7.20;3.67;;;13.40;99.90;;;14.32;100.00;98238.53;5047215;28;20488;-78
2021/08/28 01:08:15;;;;;;;9.83;4.00;;;13.30;99.90;;;14.33;100.00;98244.59;5045729;28;20492;-78
2021/08/28 01:11:01;;;;;;;7.30;4.00;;;13.30;99.90;;;14.31;100.00;98244.81;5045312;28;20475;-78
2021/08/28 01:13:33;;;;;;;9.07;4.10;;;13.30;99.90;;;14.28;100.00;98242.59;5051053;28;20492;-78
2021/08/28 01:16:04;;;;;;;10.20;4.70;;;13.20;99.90;;;14.26;100.00;98236.72;5046831;28;20514;-78
2021/08/28 01:18:35;;;;;;;12.93;4.63;;;13.30;99.90;;;14.19;100.00;98233.31;5047042;28;20547;-78
2021/08/28 01:21:15;;;;;;;9.93;4.93;;;13.20;99.90;;;14.14;100.00;98235.72;5050232;28;20519;-78
2021/08/28 01:23:45;;;;;;;5.57;3.63;;;13.10;99.90;;;14.13;100.00;98234.09;5049093;28;20437;-78
2021/08/28 01:26:21;;;;;;;7.93;4.10;;;13.00;99.90;;;14.13;100.00;98232.28;5048629;28;20481;-78
2021/08/28 01:28:57;;;;;;;10.30;4.70;;;13.10;99.90;;;14.15;100.00;98234.72;5056800;28;20479;-78
2021/08/28 01:31:28;;;;;;;6.53;3.63;;;13.10;99.90;;;14.15;100.00;98232.09;5051526;28;20488;-78
2021/08/28 01:33:57;;;;;;;9.03;4.33;;;13.10;99.90;;;14.15;100.00;98223.38;5050114;28;20543;-78
2021/08/28 01:36:27;;;;;;;8.23;4.40;;;13.10;99.90;;;14.13;100.00;98224.41;5042876;28;20873;-78
2021/08/28 01:38:56;;;;;;;6.60;4.20;;;13.10;99.90;;;14.13;100.00;98223.59;5049126;28;20559;-78
2021/08/28 01:41:26;;;;;;;6.93;4.27;;;13.10;99.90;;;14.12;100.00;98224.63;5056637;28;20834;-78
2021/08/28 01:43:55;;;;;;;5.40;3.33;;;13.10;99.90;;;14.13;100.00;98223.59;5051578;28;20511;-78
2021/08/28 01:46:25;;;;;;;5.10;4.00;;;13.10;99.90;;;14.11;100.00;98217.72;5049492;28;20492;-78
2021/08/28 01:48:54;;;;;;;14.53;4.30;;;13.10;99.90;;;14.09;100.00;98223.19;5046043;28;20507;-78
2021/08/28 01:51:24;;;;;;;5.90;4.20;;;13.00;99.90;;;14.09;100.00;98220.56;5049753;28;20461;-78
2021/08/28 01:53:53;;;;;;;16.60;4.27;;;13.10;99.90;;;14.11;100.00;98221.19;5047261;28;21035;-78
2021/08/28 01:56:22;;;;;;;4.67;3.87;;;13.10;99.90;;;14.14;100.00;98219.94;5052027;28;20827;-78
2021/08/28 01:58:51;;;;;;;17.57;4.73;;;13.10;99.90;;;14.15;100.00;98221.56;5050765;28;20806;-78
2021/08/28 02:01:20;;;;;;;7.40;4.30;;;13.20;99.90;;;14.17;100.00;98216.91;5053107;28;20865;-78
2021/08/28 02:03:50;;;;;;;5.37;3.70;;;13.20;99.90;;;14.19;100.00;98211.44;5047138;28;20461;-78
2021/08/28 02:06:29;;;;;;;7.50;3.90;;;13.20;99.90;;;14.19;100.00;98216.72;5048815;28;20507;-77
2021/08/28 02:09:05;;;;;;;7.70;3.97;;;13.30;99.90;;;14.18;100.00;98221.16;5055649;28;20543;-78
2021/08/28 02:11:51;;;;;;;8.47;4.00;;;13.20;99.90;;;14.14;100.00;98214.69;5044149;28;20873;-78
2021/08/28 02:14:25;;;;;;;6.63;4.07;;;13.30;99.90;;;14.11;100.00;98223.00;5047077;28;20516;-78
2021/08/28 02:16:55;;;;;;;8.97;3.83;;;13.30;99.90;;;14.11;100.00;98225.63;5047840;28;20540;-78
2021/08/28 02:19:31;;;;;;;4.50;3.57;;;13.20;99.90;;;14.10;100.00;98226.63;5045747;28;20524;-78
2021/08/28 02:22:10;;;;;;;7.50;4.40;;;13.10;99.90;;;14.10;100.00;98229.25;5048760;28;20467;-77
2021/08/28 02:24:42;;;;;;;5.57;3.77;;;13.00;99.90;;;14.06;100.00;98228.03;5046076;28;20457;-78
2021/08/28 02:27:20;;;;;;;6.37;3.60;;;13.00;99.90;;;14.00;100.00;98219.16;5040048;28;20920;-78
2021/08/28 02:29:55;;;;;;;8.13;4.50;;;13.00;99.90;;;13.99;100.00;98222.78;5052460;28;20583;-78
2021/08/28 02:32:26;;;;;;;7.00;4.30;;;12.90;99.90;;;13.99;100.00;98227.25;5041395;28;20515;-78
2021/08/28 02:34:59;;;;;;;6.57;3.73;;;12.90;99.90;;;14.00;100.00;98228.88;5046948;28;20563;-78
2021/08/28 02:37:29;;;;;;;6.77;3.83;;;13.00;99.90;;;13.97;100.00;98230.09;5041652;28;20457;-78
2021/08/28 02:40:00;;;;;;;7.03;3.87;;;13.00;99.90;;;13.91;100.00;98225.66;5050019;28;20542;-78
2021/08/28 02:42:29;;;;;;;10.10;4.20;;;12.80;99.90;;;13.88;100.00;98227.88;5052622;28;20457;-78
2021/08/28 02:44:58;;;;;;;5.77;3.90;;;12.80;99.90;;;13.82;100.00;98231.31;5044086;28;20461;-77
2021/08/28 02:47:29;;;;;;;8.37;4.20;;;12.70;99.90;;;13.82;100.00;98237.38;5051377;28;20449;-78
2021/08/28 02:50:00;;;;;;;5.90;4.47;;;12.80;99.90;;;13.82;100.00;98236.56;5052892;28;21044;-78
2021/08/28 02:52:32;;;;;;;7.03;4.07;;;12.70;99.90;;;13.82;100.00;98232.09;5048255;28;20522;-78
2021/08/28 02:55:04;;;;;;;10.17;3.73;;;12.80;99.90;;;13.84;100.00;98237.19;5061729;28;20543;-78
2021/08/28 02:57:35;;;;;;;7.87;4.30;;;12.80;99.90;;;13.84;100.00;98232.72;5056135;28;20452;-78
2021/08/28 03:00:06;;;;;;;6.33;4.07;;;12.80;99.90;;;13.82;100.00;98234.75;5049771;28;20891;-78
2021/08/28 03:02:37;;;;;;;12.67;4.50;;;12.80;99.90;;;13.81;100.00;98235.78;5050425;28;20469;-78
2021/08/28 03:05:12;;;;;;;7.07;4.30;;;12.80;99.90;;;13.80;100.00;98231.53;5051100;28;20470;-78
2021/08/28 03:07:42;;;;;;;8.87;4.63;;;12.70;99.90;;;13.80;100.00;98228.06;5060887;28;20526;-78
2021/08/28 03:10:13;;;;;;;5.53;3.80;;;12.70;99.90;;;13.82;100.00;98229.47;5053223;28;20519;-78
2021/08/28 03:12:43;;;;;;;6.80;4.10;;;12.70;99.90;;;13.86;100.00;98233.31;5049938;28;20977;-77
2021/08/28 03:15:12;;;;;;;8.03;3.83;;;12.80;99.90;;;13.86;100.00;98228.06;5047357;28;20457;-78
2021/08/28 03:17:43;;;;;;;6.87;4.23;;;12.90;99.90;;;13.86;100.00;98222.81;5053365;28;21054;-77
2021/08/28 03:20:16;;;;;;;9.27;4.03;;;12.90;99.90;;;13.88;100.00;98222.63;5050079;28;20542;-78
2021/08/28 03:22:46;;;;;;;5.73;4.37;;;12.90;99.90;;;13.88;100.00;98222.63;5046040;28;20457;-77
2021/08/28 03:25:18;;;;;;;5.90;4.20;;;12.90;99.90;;;13.91;100.00;98222.22;5052965;28;20533;-78
2021/08/28 03:27:49;;;;;;;6.17;4.50;;;12.90;99.90;;;13.92;100.00;98215.91;5052568;28;20465;-78
2021/08/28 03:30:19;;;;;;;15.73;4.57;;;12.90;99.90;;;13.94;100.00;98221.81;5051881;28;20476;-78
2021/08/28 03:32:51;;;;;;;5.60;4.50;;;13.00;99.90;;;13.95;100.00;98231.31;5046889;28;20469;-78
2021/08/28 03:35:22;;;;;;;7.40;3.90;;;13.00;99.90;;;13.95;100.00;98228.69;5044835;28;20522;-78
2021/08/28 03:37:50;;;;;;;5.83;4.30;;;13.00;99.90;;;13.93;100.00;98230.69;5046326;28;20468;-78
2021/08/28 03:40:20;;;;;;;7.63;4.77;;;12.90;99.90;;;13.93;100.00;98228.06;5052911;28;20566;-78
2021/08/28 03:42:49;;;;;;;6.57;4.37;;;12.90;99.90;;;13.90;100.00;98223.22;5049266;28;20468;-78
2021/08/28 03:45:17;;;;;;;7.60;4.50;;;12.80;99.90;;;13.93;100.00;98222.81;5050322;28;20496;-78
2021/08/28 03:47:48;;;;;;;6.30;4.70;;;12.90;99.90;;;13.93;100.00;98225.44;5045802;28;20468;-78
2021/08/28 03:50:17;;;;;;;8.13;4.07;;;13.00;99.90;;;13.95;100.00;98223.44;5051308;28;20469;-83
2021/08/28 03:52:47;;;;;;;11.50;6.43;;;13.00;99.90;;;13.96;100.00;98222.41;5044129;28;20879;-78
2021/08/28 03:55:16;;;;;;;9.40;3.70;;;13.00;99.90;;;13.94;100.00;98224.44;5044084;28;20465;-79
2021/08/28 03:57:44;;;;;;;5.70;4.07;;;13.10;99.90;;;13.95;100.00;98221.59;5046403;28;20868;-77
2021/08/28 04:00:14;;;;;;;5.00;4.50;;;13.00;99.90;;;13.97;100.00;98229.28;5051241;28;20542;-77
2021/08/28 04:02:42;;;;;;;7.90;4.00;;;13.00;99.90;;;13.96;100.00;98230.28;5051085;28;20463;-78
2021/08/28 04:05:11;;;;;;;7.77;4.40;;;13.10;99.90;;;13.94;100.00;98225.25;5050954;28;20457;-78
2021/08/28 04:07:41;;;;;;;4.23;3.20;;;13.00;99.90;;;13.94;100.00;98229.69;5054398;28;20475;-77
2021/08/28 04:10:11;;;;;;;5.13;3.83;;;12.90;99.90;;;13.93;100.00;98218.34;5044242;28;20866;-77
2021/08/28 04:12:40;;;;;;;10.43;3.57;;;12.90;99.90;;;13.94;100.00;98224.44;5053281;28;20503;-78
2021/08/28 04:15:10;;;;;;;5.13;3.60;;;13.00;99.90;;;13.94;100.00;98229.69;5057670;28;20437;-78
2021/08/28 04:17:39;;;;;;;6.13;4.30;;;13.00;99.90;;;13.94;100.00;98238.38;5052654;28;20485;-78
2021/08/28 04:20:09;;;;;;;9.03;4.90;;;13.00;99.90;;;13.94;100.00;98237.56;5055929;28;20529;-78
2021/08/28 04:22:37;;;;;;;10.23;4.23;;;13.00;99.90;;;13.96;100.00;98238.16;5064074;28;20452;-78
2021/08/28 04:25:07;;;;;;;6.90;4.40;;;12.90;99.90;;;13.94;100.00;98233.13;5047481;28;20493;-79
2021/08/28 04:27:37;;;;;;;7.03;4.17;;;13.00;99.90;;;13.95;100.00;98237.34;5047113;28;21268;-77
2021/08/28 04:30:08;;;;;;;5.77;4.40;;;13.00;99.90;;;13.97;100.00;98231.91;5049732;28;20496;-78
2021/08/28 04:32:36;;;;;;;7.03;4.73;;;13.00;99.90;;;13.99;100.00;98221.97;5052381;28;21006;-78
2021/08/28 04:35:06;;;;;;;6.97;4.87;;;13.00;99.90;;;14.00;100.00;98228.88;5060957;28;20444;-78
2021/08/28 04:37:34;;;;;;;6.20;4.40;;;13.00;99.90;;;14.01;100.00;98225.22;5052675;28;20452;-77
2021/08/28 04:40:04;;;;;;;6.30;3.90;;;13.10;99.90;;;14.01;100.00;98227.88;5046952;28;20531;-83
2021/08/28 04:42:32;;;;;;;9.47;4.60;;;13.10;99.90;;;13.99;100.00;98233.31;5049896;28;21007;-77
2021/08/28 04:45:02;;;;;;;7.00;5.07;;;13.10;99.90;;;14.01;100.00;98233.13;5051179;28;20473;-78
2021/08/28 04:47:31;;;;;;;10.97;5.07;;;13.00;99.90;;;14.02;100.00;98238.16;5055923;28;20468;-77
2021/08/28 04:49:59;;;;;;;6.53;5.23;;;13.10;99.90;;;14.05;100.00;98236.97;5049225;28;20550;-77
2021/08/28 04:52:28;;;;;;;9.07;4.20;;;13.10;99.90;;;14.04;100.00;98246.66;5054298;28;21174;-77
2021/08/28 04:54:57;;;;;;;6.07;4.90;;;13.10;99.90;;;14.01;100.00;98244.44;5065259;28;20444;-77
2021/08/28 04:57:25;;;;;;;8.23;4.90;;;13.00;99.90;;;14.05;100.00;98248.28;5055795;28;20519;-77
2021/08/28 04:59:54;;;;;;;5.80;4.30;;;13.10;99.90;;;14.05;100.00;98247.47;5051807;28;20481;-77
2021/08/28 05:02:24;;;;;;;7.47;5.10;;;13.10;99.90;;;14.06;100.00;98244.63;5048000;28;20456;-77
2021/08/28 05:04:52;;;;;;;9.10;4.97;;;13.10;99.90;;;14.09;100.00;98246.84;5059513;28;20483;-77
2021/08/28 05:07:21;;;;;;;8.30;4.70;;;13.10;99.90;;;14.11;100.00;98249.28;5054983;28;20471;-77
2021/08/28 05:09:49;;;;;;;7.63;5.03;;;13.20;99.90;;;14.12;100.00;98248.28;5064200;28;20475;-77
2021/08/28 05:12:18;;;;;;;9.50;4.20;;;13.10;99.90;;;14.11;100.00;98252.72;5052857;28;20476;-77
2021/08/28 05:14:46;;;;;;;9.60;5.10;;;13.20;99.90;;;14.13;100.00;98248.06;5066472;28;20449;-77
2021/08/28 05:17:14;;;;;;;7.17;5.30;;;13.10;99.90;;;14.11;100.00;98255.38;5049436;28;20478;-77
2021/08/28 05:19:44;;;;;;;8.20;4.40;;;13.10;99.90;;;14.08;100.00;98247.06;5048584;28;20445;-77
2021/08/28 05:22:13;;;;;;;8.00;4.73;;;13.10;99.90;;;14.09;100.00;98256.59;5057216;28;20567;-77
2021/08/28 05:24:41;;;;;;;6.47;4.50;;;13.10;99.90;;;14.12;100.00;98258.81;5063183;28;20449;-77
2021/08/28 05:27:09;;;;;;;17.70;4.50;;;13.20;99.90;;;14.14;100.00;98256.78;5058588;28;20468;-77
2021/08/28 05:29:38;;;;;;;10.53;4.93;;;13.20;99.90;;;14.16;100.00;98254.72;5055989;28;20456;-77
2021/08/28 05:32:08;;;;;;;7.80;5.33;;;13.20;99.90;;;14.19;100.00;98261.44;5054163;28;20445;-77
2021/08/28 05:34:37;;;;;;;6.50;4.43;;;13.30;99.90;;;14.16;100.00;98260.00;5051873;28;20496;-76
2021/08/28 05:37:06;;;;;;;6.93;4.77;;;13.20;99.90;;;14.15;100.00;98263.66;5055579;28;20476;-77
2021/08/28 05:39:35;;;;;;;6.73;4.97;;;13.10;99.90;;;14.15;100.00;98268.91;5053695;28;20496;-77
2021/08/28 05:42:04;;;;;;;10.17;7.83;;;13.20;99.90;;;14.18;100.00;98272.94;5053429;28;20503;-77
2021/08/28 05:44:32;;;;;;;7.67;5.37;;;13.30;99.90;;;14.20;100.00;98265.66;5053489;28;20457;-77
2021/08/28 05:47:01;;;;;;;6.27;4.53;;;13.30;99.90;;;14.22;100.00;98269.72;5050679;28;20485;-77
2021/08/28 05:49:29;;;;;;;8.53;4.43;;;13.30;99.90;;;14.20;100.00;98266.47;5053641;28;20988;-77
2021/08/28 05:51:58;;;;;;;5.20;4.27;;;13.20;99.90;;;14.19;100.00;98269.31;5047944;28;20933;-77
2021/08/28 05:54:28;;;;;;;9.40;5.23;;;13.20;99.90;;;14.19;100.00;98270.13;5053944;28;20453;-77
2021/08/28 05:56:56;;;;;;;7.60;5.03;;;13.30;99.90;;;14.23;100.00;98262.63;5058651;28;20464;-77
2021/08/28 05:59:25;;;;;;;8.17;5.13;;;13.30;99.90;;;14.25;100.00;98266.66;5053932;28;20449;-77
2021/08/28 06:01:55;;;;;;;8.83;4.60;;;13.30;99.90;;;14.28;100.00;98263.63;5056082;28;20546;-77
2021/08/28 06:04:23;;;;;;;6.43;4.27;;;13.30;99.90;;;14.30;100.00;98258.19;5049634;28;20811;-77
2021/08/28 06:06:52;;;;;;;8.27;4.50;;;13.30;99.90;;;14.30;100.00;98252.91;5057221;28;20957;-77
2021/08/28 06:09:20;;;;;;;6.90;4.80;;;13.40;99.90;;;14.31;100.00;98255.31;5052257;28;20445;-77
2021/08/28 06:11:50;;;;;;;5.97;4.07;;;13.30;99.90;;;14.29;100.00;98252.09;5056297;28;20461;-77
2021/08/28 06:14:19;;;;;;;22.47;5.37;;;13.30;99.90;;;14.29;100.00;98252.09;5057659;28;20457;-77
2021/08/28 06:16:47;;;;;;;5.63;4.67;;;13.30;99.90;;;14.29;100.00;98257.38;5055988;28;20445;-77
2021/08/28 06:19:16;;;;;;;7.90;5.63;;;13.30;99.90;;;14.30;100.00;98255.53;5054586;28;20452;-77
2021/08/28 06:21:45;;;;;;;7.53;5.10;;;13.30;99.90;;;14.34;100.00;98262.03;5061627;28;20541;-77
2021/08/28 06:24:13;;;;;;;8.20;4.77;;;13.40;99.90;;;14.37;100.00;98254.53;5059433;28;20498;-77
2021/08/28 06:26:42;;;;;;;10.00;5.50;;;13.40;99.90;;;14.41;100.00;98261.00;5047536;28;20473;-77
2021/08/28 06:29:12;;;;;;;10.80;5.30;;;13.50;99.90;;;14.45;100.00;98264.03;5053647;28;20457;-77
2021/08/28 06:31:40;;;;;;;7.90;5.50;;;13.50;99.90;;;14.48;100.00;98259.16;5060660;28;20535;-77
2021/08/28 06:34:09;;;;;;;9.70;5.40;;;13.60;99.90;;;14.51;100.00;98258.75;5052625;28;20456;-77
2021/08/28 06:36:37;;;;;;;7.63;5.70;;;13.60;99.90;;;14.54;100.00;98253.06;5053086;28;20524;-77
2021/08/28 06:39:06;;;;;;;8.30;5.70;;;13.70;99.90;;;14.57;100.00;98260.56;5062522;28;20492;-77
2021/08/28 06:41:34;;;;;;;10.07;5.70;;;13.70;99.90;;;14.58;100.00;98254.28;5052738;28;20522;-77
2021/08/28 06:44:03;;;;;;;11.50;5.70;;;13.80;99.90;;;14.61;100.00;98251.22;5054980;28;20950;-77
2021/08/28 06:46:32;;;;;;;14.23;6.47;;;13.80;99.90;;;14.63;100.00;98256.28;5062341;28;20456;-77
2021/08/28 06:49:01;;;;;;;7.93;5.53;;;13.80;99.90;;;14.66;100.00;98255.88;5050780;28;20445;-77
2021/08/28 06:51:30;;;;;;;15.40;6.30;;;13.90;99.90;;;14.68;100.00;98245.97;5054305;28;20480;-77
2021/08/28 06:53:58;;;;;;;10.30;5.93;;;13.80;99.90;;;14.69;100.00;98249.38;5055517;28;20499;-77
2021/08/28 06:56:27;;;;;;;7.27;4.90;;;13.80;99.90;;;14.69;100.00;98257.28;5055244;28;20442;-77
2021/08/28 06:58:56;;;;;;;10.57;5.63;;;13.80;99.90;;;14.69;100.00;98265.97;5048814;28;20542;-77
2021/08/28 07:01:24;;;;;;;9.60;6.23;;;13.70;99.90;;;14.73;100.00;98256.66;5053015;28;20535;-77
2021/08/28 07:03:54;;;;;;;8.30;5.70;;;13.80;99.90;;;14.76;100.00;98260.69;5053624;28;20457;-77
2021/08/28 07:06:23;;;;;;;9.57;6.67;;;13.80;99.90;;;14.77;100.00;98264.94;5057696;28;20479;-77
2021/08/28 07:08:51;;;;;;;7.63;6.27;;;13.90;99.90;;;14.78;100.00;98259.50;5051479;28;20503;-77
2021/08/28 07:11:20;;;;;;;9.23;5.43;;;14.00;99.90;;;14.80;100.00;98257.44;5056721;28;20460;-77
2021/08/28 07:13:52;;;;;;;10.47;6.50;;;14.00;99.90;;;14.82;100.00;98259.88;5052802;28;20451;-77
2021/08/28 07:16:20;;;;;;;8.80;5.57;;;14.00;99.90;;;14.85;100.00;98264.72;5056783;28;20448;-77
2021/08/28 07:18:49;;;;;;;10.40;6.83;;;14.00;99.90;;;14.86;100.00;98263.69;5054720;28;20449;-77
2021/08/28 07:21:19;;;;;;;11.27;6.80;;;14.00;99.90;;;14.86;100.00;98259.25;5056478;28;20513;-77
2021/08/28 07:23:48;;;;;;;8.70;6.53;;;14.00;99.90;;;14.90;100.00;98254.34;5053499;28;20453;-77
2021/08/28 07:26:18;;;;;;;9.80;6.20;;;14.00;99.90;;;14.91;100.00;98254.16;5053665;28;20509;-78
2021/08/28 07:28:46;;;;;;;10.30;6.77;;;14.10;99.90;;;14.94;100.00;98250.28;5054591;28;20526;-77
2021/08/28 07:31:15;;;;;;;14.77;7.17;;;14.00;99.90;;;14.97;100.00;98257.78;5052528;28;20449;-77
2021/08/28 07:33:43;;;;;;;13.70;7.07;;;14.10;99.90;;;14.99;100.00;98250.50;5048863;28;20481;-77
2021/08/28 07:36:12;;;;;;;11.90;6.50;;;14.10;99.90;;;15.02;100.00;98260.59;5056366;28;20511;-77
2021/08/28 07:38:42;;;;;;;9.20;6.77;;;14.10;99.90;;;15.06;100.00;98251.28;5057412;28;20449;-77
2021/08/28 07:41:11;;;;;;;8.20;6.00;;;14.10;99.90;;;15.09;100.00;98256.13;5055961;28;20454;-78
2021/08/28 07:43:39;;;;;;;10.07;6.27;;;14.20;99.90;;;15.10;100.00;98252.44;5057726;28;20503;-78
2021/08/28 07:46:08;;;;;;;8.70;6.40;;;14.20;99.90;;;15.10;100.00;98261.16;5056048;28;20449;-77
2021/08/28 07:48:36;;;;;;;10.83;7.40;;;14.10;99.90;;;15.13;100.00;98261.78;5057659;28;20555;-77
2021/08/28 07:51:05;;;;;;;12.60;7.00;;;14.20;99.90;;;15.15;100.00;98260.53;5055049;28;20479;-77
2021/08/28 07:53:33;;;;;;;11.40;7.27;;;14.30;99.90;;;15.19;100.00;98255.66;5058306;28;20951;-77
2021/08/28 07:56:04;;;;;;;8.30;6.97;;;14.30;99.90;;;15.20;100.00;98258.09;5056254;28;20549;-77
2021/08/28 07:58:32;;;;;;;10.63;6.40;;;14.30;99.90;;;15.16;100.00;98256.06;5058202;28;20945;-77
2021/08/28 08:01:00;;;;;;;9.20;5.73;;;14.20;99.90;;;15.16;100.00;98261.34;5056459;28;20507;-77
2021/08/28 08:03:29;;;;;;;9.67;6.20;;;14.30;99.90;;;15.16;100.00;98251.63;5058890;28;20501;-77
2021/08/28 08:05:58;;;;;;;9.33;6.20;;;14.30;99.90;;;15.19;100.00;98256.47;5056793;28;20869;-77
2021/08/28 08:08:26;;;;;;;10.67;5.80;;;14.40;99.90;;;15.21;100.00;98248.31;5046576;28;20912;-77
2021/08/28 08:10:55;;;;;;;7.53;5.70;;;14.40;99.90;;;15.23;100.00;98251.56;5056493;28;21121;-77
2021/08/28 08:13:25;;;;;;;7.90;5.60;;;14.30;99.90;;;15.24;100.00;98258.47;5057508;28;20864;-77
2021/08/28 08:15:53;;;;;;;8.23;5.13;;;14.30;99.90;;;15.27;100.00;98258.81;5055815;28;20562;-77
2021/08/28 08:18:22;;;;;;;13.83;8.00;;;14.40;99.90;;;15.31;100.00;98257.41;5056195;28;20475;-77
2021/08/28 08:20:50;;;;;;;11.27;7.60;;;14.40;99.90;;;15.35;100.00;98263.06;5058889;28;20510;-77
2021/08/28 08:23:19;;;;;;;16.17;8.73;;;14.40;99.90;;;15.37;100.00;98264.47;5055915;28;20528;-77
2021/08/28 08:25:47;;;;;;;13.80;8.43;;;14.50;99.90;;;15.38;100.00;98263.44;5058178;28;20481;-77
2021/08/28 08:28:16;;;;;;;11.50;7.57;;;14.60;99.90;;;15.41;100.00;98259.59;5053145;28;20504;-78
2021/08/28 08:30:46;;;;;;;10.53;7.03;;;14.50;99.90;;;15.32;100.00;98261.66;5054038;28;20453;-77
2021/08/28 08:33:15;;;;;;;18.13;7.10;;;14.40;99.90;;;15.30;100.00;98258.44;5052507;28;20442;-77
2021/08/28 08:35:43;;;;;;;10.23;7.13;;;14.40;99.90;;;15.34;100.00;98258.81;5053744;28;20875;-77
2021/08/28 08:38:11;;;;;;;9.40;5.30;;;14.50;99.90;;;15.35;100.00;98261.22;5062244;28;20508;-78
2021/08/28 08:40:40;;;;;;;11.93;6.20;;;14.50;99.90;;;15.36;100.00;98265.47;5056616;28;21027;-77
2021/08/28 08:43:09;;;;;;;6.97;4.97;;;14.40;99.90;;;15.36;100.00;98262.84;5048836;28;20496;-77
2021/08/28 08:45:38;;;;;;;8.63;5.73;;;14.40;99.90;;;15.35;100.00;98265.69;5056909;28;20454;-77
2021/08/28 08:48:10;;;;;;;14.63;5.77;;;14.40;99.90;;;15.30;100.00;98263.69;5055222;28;20460;-77
2021/08/28 08:50:39;;;;;;;4.50;3.57;;;14.40;99.90;;;15.29;100.00;98262.06;5053027;28;20453;-77
2021/08/28 08:53:10;;;;;;;4.20;3.47;;;14.30;99.90;;;15.28;100.00;98260.44;5056107;28;20522;-77
2021/08/28 08:55:40;;;;;;;5.90;4.10;;;14.30;99.90;;;15.31;100.00;98264.47;5055683;28;20449;-78
2021/08/28 08:58:14;;;;;;;4.07;3.43;;;14.40;99.90;;;15.32;100.00;98269.56;5054443;28;20448;-77
2021/08/28 09:00:43;;;;;;;4.90;4.07;;;14.40;99.90;;;15.33;100.00;98267.72;5054949;28;20453;-78
2021/08/28 09:03:13;;;;;;;4.23;3.17;;;14.40;99.90;;;15.36;100.00;98270.75;5058294;28;20882;-77
2021/08/28 09:05:42;;;;;;;5.17;3.60;;;14.40;99.90;;;15.38;100.00;98270.53;5062135;28;20473;-77
2021/08/28 09:08:11;;;;;;;5.43;4.13;;;14.50;99.90;;;15.40;100.00;98269.31;5058251;28;20444;-77
2021/08/28 09:10:39;;;;;;;8.20;3.40;;;14.50;99.90;;;15.41;100.00;98256.94;5056641;28;20493;-78
2021/08/28 09:13:17;;;;;;;4.20;3.40;;;14.50;99.90;;;15.44;100.00;98259.16;5056602;28;20480;-77
2021/08/28 09:15:49;;;;;;;4.53;3.27;;;14.50;99.90;;;15.46;100.00;98260.56;5050433;28;20489;-78
2021/08/28 09:18:51;;;;;;;3.57;2.90;;;14.50;99.90;;;15.50;100.00;98263.59;5054173;28;20480;-78
2021/08/28 09:21:21;;;;;;;4.30;3.30;;;14.50;99.90;;;15.53;100.00;98269.25;5057590;28;20449;-77
2021/08/28 09:23:50;;;;;;;6.83;3.87;;;14.60;99.90;;;15.57;100.00;98269.63;5056706;28;20538;-78
2021/08/28 09:26:30;;;;;;;5.33;3.57;;;14.70;99.90;;;15.62;100.00;98266.38;5057551;28;20546;-78
2021/08/28 09:28:59;;;;;;;5.80;3.80;;;14.80;99.90;;;15.68;100.00;98270.78;5054409;28;20451;-78
2021/08/28 09:31:44;;;;;;;5.93;4.27;;;14.90;99.90;;;15.72;100.00;98264.88;5053502;28;20449;-78
2021/08/28 09:34:23;;;;;;;5.93;4.30;;;14.90;99.90;;;15.75;100.00;98268.91;5054778;28;20464;-77
2021/08/28 09:36:58;;;;;;;7.83;4.03;;;15.00;99.90;;;15.78;100.00;98257.94;5051241;28;20457;-78
2021/08/28 09:39:43;;;;;;;4.50;3.47;;;15.10;99.90;;;15.78;100.00;98264.00;5052925;28;20453;-78
2021/08/28 09:42:18;;;;;;;16.23;3.87;;;15.20;99.90;;;15.78;100.00;98265.84;5055806;28;20501;-77
2021/08/28 09:44:48;;;;;;;6.17;4.30;;;15.10;99.90;;;15.78;100.00;98271.94;5053489;28;20622;-78
2021/08/28 09:47:19;;;;;;;5.77;3.83;;;15.10;99.90;;;15.77;100.00;98274.75;5055783;28;20452;-78
2021/08/28 09:49:51;;;;;;;8.90;3.37;;;15.10;99.90;;;15.80;100.00;98274.34;5052116;28;20859;-77
2021/08/28 09:52:23;;;;;;;4.10;3.07;;;15.10;99.90;;;15.79;100.00;98264.84;5053380;28;20445;-78
2021/08/28 09:54:54;;;;;;;6.47;3.07;;;15.10;99.90;;;15.75;100.00;98269.72;5056036;28;20449;-78
2021/08/28 09:57:28;;;;;;;5.20;2.70;;;15.20;99.90;;;15.78;100.00;98264.00;5044799;28;20511;-78
2021/08/28 09:59:59;;;;;;;3.90;2.57;;;15.20;99.90;;;15.75;100.00;98268.91;5056883;28;20511;-78
2021/08/28 10:02:28;;;;;;;2.53;2.30;;;15.20;99.90;;;15.77;100.00;98274.75;5053768;28;20937;-77
2021/08/28 10:05:00;;;;;;;3.60;2.57;;;15.10;99.90;;;15.80;100.00;98272.50;5057003;28;20492;-78
2021/08/28 10:07:31;;;;;;;2.93;2.10;;;15.10;99.90;;;15.81;100.00;98273.31;5052846;28;20499;-78
2021/08/28 10:10:04;;;;;;;6.97;2.10;;;15.10;99.90;;;15.82;100.00;98267.03;5051733;28;20453;-78
2021/08/28 10:12:35;;;;;;;5.67;2.50;;;15.20;99.90;;;15.82;100.00;98259.94;5050354;28;20449;-77
2021/08/28 10:15:08;;;;;;;6.37;2.63;;;15.10;99.90;;;15.82;100.00;98259.94;5055199;28;20453;-78
2021/08/28 10:17:38;;;;;;;2.73;2.30;;;15.00;99.90;;;15.82;100.00;98253.84;5056570;28;20467;-78
2021/08/28 10:20:12;;;;;;;3.43;2.10;;;15.00;99.90;;;15.85;100.00;98266.59;5053901;28;20445;-78
2021/08/28 10:22:43;;;;;;;3.23;2.00;;;15.00;99.90;;;15.81;100.00;98260.13;5056891;28;20452;-77